Pampa / Mesa Vista, TX

7:23 PM CDT on March 28, 2017 (GMT -0500)
Pampa / Mesa Vista

Weather History for KBPC - September, 2012

Change the Weather History Date:

Tuesday, September 25, 2012

  Actual Average (KBGD) Record (KBGD)
Temperature  
Mean Temperature 78 °F -  
Max Temperature 91 °F 79 °F 93 °F (2012)
Min Temperature 62 °F 54 °F 35 °F (2000)
Cooling Degree Days 12    
Growing Degree Days 28 (Base 50)    
Moisture  
Dew Point 43 °F    
Average Humidity 32    
Maximum Humidity 55    
Minimum Humidity 13    
Precipitation  
Precipitation 0.00 in - - ()
Sea Level Pressure  
Sea Level Pressure 29.84 in    
Wind  
Wind Speed 12 mph (SW)    
Max Wind Speed 18 mph    
Max Gust Speed 26 mph    
Visibility 10 miles    
Events      
Averages and records for this station are not official NWS values.
T = Trace of Precipitation, MM = Missing Value Source: NWS Daily Summary

Daily Weather History Graph

Daily Weather History Graph

Search for Another Location

Airport or City:

Trip Planner

Search our weather history database for the weather conditions in past years. The results will help you decide how hot, cold, wet, or windy it might be!

Date:

Astronomy

Sep. 25, 2012 Rise Set
Actual Time 7:34 AM CDT 7:35 PM CDT
Civil Twilight 7:09 AM CDT 8:01 PM CDT
Nautical Twilight 6:39 AM CDT 8:30 PM CDT
Astronomical Twilight 6:09 AM CDT 9:00 PM CDT
Moon 4:55 PM CDT (9/25) 3:06 AM CDT (9/25)
Length of Visible Light 12h 51m
Length of Day
12h 00m
Waxing Gibbous, 80% of the Moon is Illuminated
Sep 25
Waxing Gibbous
Sep 29
Full
Oct 8
Last Quarter
Oct 15
New
Oct 21
First Quarter

Hourly Weather History & Observations

Time (CDT) Temp. Dew Point Humidity Pressure Visibility Wind Dir Wind Speed Gust Speed Precip Events Conditions
12:35 AM 75.2 °F 42.8 °F 31% 29.88 in 10.0 mi South 12.7 mph - N/A   Clear
12:55 AM 75.2 °F 42.8 °F 31% 29.88 in 10.0 mi SSW 9.2 mph - N/A   Clear
1:15 AM 73.4 °F 42.8 °F 33% 29.90 in 10.0 mi WNW 15.0 mph - N/A   Scattered Clouds
1:35 AM 71.6 °F 42.8 °F 35% 29.90 in 10.0 mi SSW 10.4 mph - N/A   Clear
1:55 AM 73.4 °F 41.0 °F 31% 29.88 in 10.0 mi SSW 12.7 mph - N/A   Clear
2:15 AM 73.4 °F 39.2 °F 29% 29.88 in 10.0 mi SSW 17.3 mph 20.7 mph N/A   Clear
2:35 AM 73.4 °F 37.4 °F 27% 29.87 in 10.0 mi SW 15.0 mph - N/A   Clear
2:55 AM 73.4 °F 39.2 °F 29% 29.87 in 10.0 mi SSW 15.0 mph - N/A   Clear
3:15 AM 71.6 °F 39.2 °F 31% 29.86 in 10.0 mi SSW 13.8 mph - N/A   Clear
3:35 AM 73.4 °F 41.0 °F 31% 29.85 in 10.0 mi SSW 16.1 mph - N/A   Clear
3:55 AM 71.6 °F 41.0 °F 33% 29.86 in 10.0 mi SSW 15.0 mph 21.9 mph N/A   Clear
4:15 AM 71.6 °F 41.0 °F 33% 29.86 in 10.0 mi SW 12.7 mph - N/A   Clear
4:35 AM 71.6 °F 41.0 °F 33% 29.86 in 10.0 mi SSW 17.3 mph 23.0 mph N/A   Clear
4:55 AM 71.6 °F 42.8 °F 35% 29.86 in 10.0 mi SSW 13.8 mph - N/A   Clear
5:15 AM 69.8 °F 42.8 °F 38% 29.86 in 10.0 mi SSW 10.4 mph - N/A   Clear
5:35 AM 68.0 °F 44.6 °F 43% 29.86 in 10.0 mi SW 9.2 mph - N/A   Clear
5:55 AM 66.2 °F 44.6 °F 46% 29.86 in 10.0 mi SW 6.9 mph - N/A   Clear
6:15 AM 64.4 °F 46.4 °F 52% 29.85 in 10.0 mi SSW 8.1 mph - N/A   Clear
6:35 AM 69.8 °F 50.0 °F 49% 29.85 in 10.0 mi SW 11.5 mph - N/A   Clear
6:55 AM 69.8 °F 50.0 °F 49% 29.86 in 10.0 mi SW 11.5 mph - N/A   Clear
7:15 AM 69.8 °F 50.0 °F 49% 29.86 in 10.0 mi SSW 12.7 mph - N/A   Clear
7:35 AM 69.8 °F 50.0 °F 49% 29.86 in 10.0 mi SW 11.5 mph - N/A   Clear
7:55 AM 69.8 °F 50.0 °F 49% 29.87 in 10.0 mi SW 12.7 mph - N/A   Clear
8:15 AM 69.8 °F 50.0 °F 49% 29.88 in 10.0 mi WSW 8.1 mph - N/A   Clear
8:35 AM 69.8 °F 50.0 °F 49% 29.88 in 10.0 mi SW 9.2 mph - N/A   Clear
8:55 AM 71.6 °F 50.0 °F 46% 29.89 in 10.0 mi West 3.5 mph - N/A   Clear
9:15 AM 73.4 °F 46.4 °F 38% 29.89 in 10.0 mi SW 5.8 mph - N/A   Clear
9:35 AM 73.4 °F 44.6 °F 36% 29.89 in 10.0 mi WSW 5.8 mph - N/A   Clear
9:55 AM 73.4 °F 44.6 °F 36% 29.89 in 10.0 mi SSW 5.8 mph - N/A   Clear
10:15 AM 77.0 °F 46.4 °F 34% 29.89 in 10.0 mi SSW 6.9 mph - N/A   Clear
10:35 AM 77.0 °F 44.6 °F 32% 29.88 in 10.0 mi South 5.8 mph - N/A   Clear
10:55 AM 78.8 °F 44.6 °F 30% 29.89 in 10.0 mi SSW 6.9 mph - N/A   Clear
11:15 AM 80.6 °F 44.6 °F 28% 29.88 in 10.0 mi SSW 6.9 mph - N/A   Clear
11:35 AM 82.4 °F 44.6 °F 26% 29.88 in 10.0 mi WSW 8.1 mph - N/A   Clear
11:55 AM 84.2 °F 42.8 °F 23% 29.88 in 10.0 mi WSW 11.5 mph 16.1 mph N/A   Clear
12:15 PM 86.0 °F 42.8 °F 22% 29.88 in 10.0 mi WSW 12.7 mph 16.1 mph N/A   Clear
12:35 PM 84.2 °F 42.8 °F 23% 29.88 in 10.0 mi WSW 11.5 mph - N/A   Clear
12:55 PM 86.0 °F 42.8 °F 22% 29.87 in 10.0 mi WSW 11.5 mph 16.1 mph N/A   Clear
1:15 PM 86.0 °F 41.0 °F 20% 29.87 in 10.0 mi WSW 10.4 mph 16.1 mph N/A   Clear
2:15 PM 89.6 °F 39.2 °F 17% 29.83 in 10.0 mi West 11.5 mph 20.7 mph N/A   Clear
2:35 PM 91.4 °F 35.6 °F 14% 29.82 in 10.0 mi SW 18.4 mph 24.2 mph N/A   Clear
2:55 PM 89.6 °F 37.4 °F 16% 29.82 in 10.0 mi SSW 15.0 mph 20.7 mph N/A   Clear
3:15 PM 91.4 °F 37.4 °F 15% 29.81 in 10.0 mi WSW 12.7 mph 18.4 mph N/A   Clear
3:35 PM 91.4 °F 35.6 °F 14% 29.81 in 10.0 mi SW 16.1 mph 21.9 mph N/A   Clear
3:55 PM 91.4 °F 35.6 °F 14% 29.80 in 10.0 mi WSW 13.8 mph 20.7 mph N/A   Clear
4:15 PM 91.4 °F 37.4 °F 15% 29.80 in 10.0 mi WSW 16.1 mph 21.9 mph N/A   Clear
4:35 PM 91.4 °F 37.4 °F 15% 29.79 in 10.0 mi WSW 11.5 mph 20.7 mph N/A   Clear
4:55 PM 91.4 °F 35.6 °F 14% 29.78 in 10.0 mi WSW 13.8 mph 18.4 mph N/A   Clear
5:15 PM 91.4 °F 35.6 °F 14% 29.79 in 10.0 mi WSW 12.7 mph 21.9 mph N/A   Clear
5:35 PM 91.4 °F 33.8 °F 13% 29.78 in 10.0 mi WSW 10.4 mph 18.4 mph N/A   Clear
5:55 PM 91.4 °F 33.8 °F 13% 29.78 in 10.0 mi WSW 11.5 mph - N/A   Clear
6:15 PM 91.4 °F 33.8 °F 13% 29.78 in 10.0 mi SSW 9.2 mph - N/A   Clear
6:35 PM 89.6 °F 33.8 °F 14% 29.78 in 10.0 mi WSW 9.2 mph - N/A   Clear
6:55 PM 87.8 °F 42.8 °F 21% 29.80 in 10.0 mi SSE 15.0 mph 18.4 mph N/A   Clear
7:15 PM 82.4 °F 44.6 °F 26% 29.79 in 10.0 mi SE 17.3 mph 26.5 mph N/A   Clear
7:55 PM 77.0 °F 46.4 °F 34% 29.79 in 10.0 mi SSE 15.0 mph - N/A   Clear
8:15 PM 77.0 °F 46.4 °F 34% 29.79 in 10.0 mi SSE 15.0 mph - N/A   Clear
8:35 PM 75.2 °F 46.4 °F 36% 29.79 in 10.0 mi South 15.0 mph - N/A   Clear
8:55 PM 73.4 °F 46.4 °F 38% 29.79 in 10.0 mi South 16.1 mph - N/A   Clear
9:35 PM 71.6 °F 48.2 °F 43% 29.81 in 10.0 mi West 8.1 mph - N/A   Clear
9:55 PM 69.8 °F 48.2 °F 46% 29.81 in 10.0 mi SW 5.8 mph - N/A   Clear
10:15 PM 66.2 °F 48.2 °F 52% 29.80 in 10.0 mi SSW 8.1 mph - N/A   Clear
10:35 PM 66.2 °F 48.2 °F 52% 29.81 in 10.0 mi South 6.9 mph - N/A   Clear
10:55 PM 64.4 °F 46.4 °F 52% 29.81 in 10.0 mi Calm Calm - N/A   Clear
11:15 PM 64.4 °F 46.4 °F 52% 29.82 in 10.0 mi SW 3.5 mph - N/A   Clear
11:35 PM 62.6 °F 46.4 °F 55% 29.84 in 10.0 mi Calm Calm - N/A   Clear